Time;durP1;ratioP1;P1;durP2;ratioP2;P2;SDS_P1;SDS_P2;PMS_P1;PMS_P2;Temp;Humidity;BMP_temperature;BMP_pressure;BME280_temperature;BME280_humidity;BME280_pressure;Samples;Min_cycle;Max_cycle;Signal;HPM_P1;HPM_P2
2022/03/14 00:00:24;;;;;;;20.50;18.30;;;;;;;9.07;69.10;99383.22;4916785;29;20020;-48
2022/03/14 00:02:50;;;;;;;31.83;26.08;;;;;;;9.04;68.78;99380.97;4916770;29;20380;-49
2022/03/14 00:05:17;;;;;;;3.28;2.42;;;;;;;9.03;69.11;99381.94;4918001;29;20028;-48
2022/03/14 00:07:47;;;;;;;1.58;1.15;;;;;;;9.05;68.69;99382.59;4917970;29;20028;-48
2022/03/14 00:10:15;;;;;;;1.50;1.13;;;;;;;8.99;68.93;99386.72;4916612;29;20032;-48
2022/03/14 00:12:43;;;;;;;1.52;1.08;;;;;;;8.91;68.84;99398.03;4917867;29;20024;-49
2022/03/14 00:15:13;;;;;;;2.42;1.35;;;;;;;8.80;69.15;99394.00;4917878;29;20024;-47
2022/03/14 00:17:41;;;;;;;5.60;4.28;;;;;;;8.65;69.05;99393.09;4916413;29;20032;-48
2022/03/14 00:20:11;;;;;;;1.98;1.42;;;;;;;8.54;69.46;99403.94;4917811;29;20024;-46
2022/03/14 00:22:37;;;;;;;4.78;1.73;;;;;;;8.58;70.53;99400.00;4917755;29;20050;-49
2022/03/14 00:25:07;;;;;;;5.00;3.53;;;;;;;8.79;71.48;99394.16;4916344;29;20028;-49
2022/03/14 00:27:35;;;;;;;5.20;1.52;;;;;;;8.94;71.00;99402.94;4917619;29;20035;-48
2022/03/14 00:30:05;;;;;;;5.32;1.67;;;;;;;9.03;71.12;99400.28;4916252;29;20040;-49
2022/03/14 00:32:31;;;;;;;4.35;2.03;;;;;;;9.11;70.83;99408.09;4917584;29;20024;-48
2022/03/14 00:34:57;;;;;;;45.97;41.17;;;;;;;9.19;71.22;99406.25;4916194;29;20435;-48
2022/03/14 00:37:23;;;;;;;3.28;2.70;;;;;;;9.28;69.77;99404.38;4916067;29;20033;-48
2022/03/14 00:39:49;;;;;;;3.55;1.65;;;;;;;9.26;70.01;99411.59;4916097;29;20039;-48
2022/03/14 00:42:15;;;;;;;7.28;3.83;;;;;;;9.34;70.48;99414.16;4916045;29;20032;-49
2022/03/14 00:44:42;;;;;;;2.67;2.10;;;;;;;9.44;70.12;99416.56;4916014;29;20032;-49
2022/03/14 00:47:08;;;;;;;5.03;4.07;;;;;;;9.58;69.84;99414.97;4917242;29;20024;-49
2022/03/14 00:49:34;;;;;;;2.78;2.08;;;;;;;9.65;69.41;99425.56;4917128;29;20027;-49
2022/03/14 00:52:01;;;;;;;8.68;3.15;;;;;;;9.59;68.80;99421.84;4917153;29;20035;-49
2022/03/14 00:54:26;;;;;;;74.30;66.30;;;;;;;9.53;68.13;99427.78;4917141;29;20590;-49
2022/03/14 00:56:52;;;;;;;8.93;8.00;;;;;;;9.51;67.20;99435.00;4915794;29;20058;-49
2022/03/14 00:59:18;;;;;;;6.35;4.82;;;;;;;9.36;67.26;99435.75;4915641;29;20410;-48
2022/03/14 01:01:44;;;;;;;12.35;11.13;;;;;;;9.29;66.93;99429.56;4916981;29;20155;-49
2022/03/14 01:04:09;;;;;;;7.78;5.10;;;;;;;9.17;67.63;99426.53;4915650;29;20035;-50
2022/03/14 01:06:36;;;;;;;13.50;12.00;;;;;;;9.13;67.72;99424.44;4916795;29;20564;-50
2022/03/14 01:09:03;;;;;;;6.68;5.07;;;;;;;9.24;67.83;99428.47;4916888;29;20494;-49
2022/03/14 01:11:28;;;;;;;7.80;6.18;;;;;;;9.28;67.91;99419.28;4915560;29;20405;-49
2022/03/14 01:13:55;;;;;;;4.80;2.60;;;;;;;9.29;67.59;99426.16;4915502;29;20028;-50
2022/03/14 01:16:21;;;;;;;80.53;72.93;;;;;;;9.15;67.88;99425.06;4916464;29;20136;-48
2022/03/14 01:18:47;;;;;;;12.65;11.45;;;;;;;9.09;68.25;99436.25;4916633;29;20016;-48
2022/03/14 01:21:12;;;;;;;5.00;4.25;;;;;;;9.04;68.14;99439.38;4915352;29;20024;-48
2022/03/14 01:23:38;;;;;;;5.75;2.45;;;;;;;8.99;69.54;99434.66;4915350;29;20032;-48
2022/03/14 01:26:04;;;;;;;2.55;1.80;;;;;;;9.09;69.09;99436.25;4916822;29;20088;-48
2022/03/14 01:28:30;;;;;;;5.55;2.28;;;;;;;9.19;68.43;99442.06;4916526;29;20067;-48
2022/03/14 01:30:58;;;;;;;12.65;11.35;;;;;;;9.16;68.70;99448.47;4916513;29;20020;-48
2022/03/14 01:33:23;;;;;;;7.40;6.05;;;;;;;9.03;68.47;99448.22;4915178;29;20115;-47
2022/03/14 01:35:49;;;;;;;3.17;2.85;;;;;;;8.94;68.56;99444.03;4916371;29;20107;-48
2022/03/14 01:38:15;;;;;;;14.18;12.73;;;;;;;8.83;68.28;99458.28;4916288;29;20039;-48
2022/03/14 01:40:41;;;;;;;7.80;5.00;;;;;;;8.64;69.24;99456.88;4916288;29;20032;-48
2022/03/14 01:43:06;;;;;;;5.90;4.88;;;;;;;8.66;69.74;99459.34;4916309;29;20395;-49
2022/03/14 01:45:32;;;;;;;4.35;3.00;;;;;;;8.96;69.26;99453.31;4916244;29;20115;-50
2022/03/14 01:47:58;;;;;;;7.75;5.18;;;;;;;9.25;68.07;99443.19;4916224;29;20028;-49
2022/03/14 01:50:25;;;;;;;9.02;2.55;;;;;;;9.31;67.60;99445.94;4916174;29;20509;-48
2022/03/14 01:52:50;;;;;;;3.58;1.73;;;;;;;9.36;67.31;99450.66;4916158;29;20032;-51
2022/03/14 01:55:16;;;;;;;113.93;103.15;;;;;;;9.39;66.60;99458.97;4914775;29;20103;-50
2022/03/14 01:57:43;;;;;;;84.07;75.00;;;;;;;9.38;67.11;99448.69;4915962;29;20042;-50
2022/03/14 02:00:11;;;;;;;14.32;12.98;;;;;;;9.43;65.88;99456.03;4915880;29;20426;-50
2022/03/14 02:02:37;;;;;;;4.28;3.88;;;;;;;9.27;66.16;99459.56;4916040;29;20047;-50
2022/03/14 02:05:03;;;;;;;4.80;3.88;;;;;;;9.12;66.72;99451.63;4916001;29;20490;-49
2022/03/14 02:07:28;;;;;;;6.97;2.60;;;;;;;9.05;66.96;99433.16;4915964;29;20080;-49
2022/03/14 02:09:54;;;;;;;4.55;3.33;;;;;;;9.07;67.64;99438.22;4915959;29;20031;-49
2022/03/14 02:12:20;;;;;;;8.75;4.78;;;;;;;9.05;67.58;99440.19;4916146;29;20028;-48
2022/03/14 02:14:46;;;;;;;14.35;9.75;;;;;;;9.15;66.90;99443.41;4915806;29;20103;-48
2022/03/14 02:17:14;;;;;;;4.95;4.50;;;;;;;9.24;66.29;99434.53;4915548;29;20044;-48
2022/03/14 02:19:41;;;;;;;7.55;3.72;;;;;;;9.20;65.94;99428.81;4915788;29;20020;-48
2022/03/14 02:22:13;;;;;;;9.30;6.25;;;;;;;9.06;66.14;99433.97;4915756;29;20032;-49
2022/03/14 02:24:46;;;;;;;9.50;7.07;;;;;;;8.89;66.70;99435.84;4915761;29;20107;-49
2022/03/14 02:27:14;;;;;;;12.02;7.68;;;;;;;8.83;67.58;99429.47;4915710;29;20043;-48
2022/03/14 02:29:41;;;;;;;4.90;3.50;;;;;;;8.82;67.85;99451.44;4914339;29;20024;-48
2022/03/14 02:32:11;;;;;;;9.27;6.32;;;;;;;8.72;67.76;99451.63;4914347;29;20032;-49
2022/03/14 02:34:37;;;;;;;6.30;3.10;;;;;;;8.62;68.44;99445.78;4915631;29;20107;-48
2022/03/14 02:37:04;;;;;;;16.27;14.05;;;;;;;8.53;68.43;99450.22;4915553;29;20115;-50
2022/03/14 02:39:34;;;;;;;9.10;4.20;;;;;;;8.44;68.70;99448.59;4914171;29;20103;-48
2022/03/14 02:42:01;;;;;;;5.57;3.38;;;;;;;8.30;68.85;99437.00;4914262;29;20029;-48
2022/03/14 02:44:27;;;;;;;12.52;10.05;;;;;;;8.13;68.90;99449.28;4914219;29;20623;-49
2022/03/14 02:46:53;;;;;;;27.35;24.58;;;;;;;8.12;70.14;99452.06;4915497;29;20035;-48
2022/03/14 02:49:19;;;;;;;17.70;15.25;;;;;;;8.13;69.25;99448.44;4915463;29;20024;-49
2022/03/14 02:51:46;;;;;;;6.18;5.57;;;;;;;8.16;69.24;99458.59;4915421;29;20048;-48
2022/03/14 02:54:12;;;;;;;4.95;4.20;;;;;;;8.17;69.07;99461.06;4915455;29;20024;-50
2022/03/14 02:56:40;;;;;;;4.82;4.25;;;;;;;8.07;69.32;99468.25;4914100;29;20036;-48
2022/03/14 02:59:06;;;;;;;6.18;2.90;;;;;;;8.03;69.24;99460.88;4915354;29;20020;-49
2022/03/14 03:01:33;;;;;;;16.23;14.70;;;;;;;8.15;69.47;99464.81;4915352;29;20024;-48
2022/03/14 03:03:59;;;;;;;7.20;5.53;;;;;;;8.31;69.41;99467.41;4914143;29;20119;-49
2022/03/14 03:06:25;;;;;;;7.80;5.20;;;;;;;8.40;68.00;99474.25;4914046;29;20569;-49
2022/03/14 03:08:52;;;;;;;43.70;39.55;;;;;;;8.37;67.96;99465.91;4913921;29;20036;-48
2022/03/14 03:11:18;;;;;;;8.63;7.40;;;;;;;8.52;68.78;99473.94;4915263;29;20032;-49
2022/03/14 03:13:46;;;;;;;5.05;3.15;;;;;;;8.68;67.92;99466.03;4918497;29;20024;-48
2022/03/14 03:16:16;;;;;;;6.15;3.65;;;;;;;8.84;67.48;99465.16;4918696;29;20486;-48
2022/03/14 03:18:45;;;;;;;4.15;2.67;;;;;;;8.98;66.65;99472.28;4918831;29;20039;-49
2022/03/14 03:21:12;;;;;;;25.02;21.48;;;;;;;9.11;65.77;99456.03;4918866;29;20083;-49
2022/03/14 03:23:40;;;;;;;10.27;4.85;;;;;;;9.15;66.37;99461.75;4918719;29;20111;-50
2022/03/14 03:26:06;;;;;;;5.28;2.08;;;;;;;9.22;64.91;99459.28;4917449;29;20088;-48
2022/03/14 03:28:37;;;;;;;4.22;1.70;;;;;;;9.09;64.74;99465.84;4918728;29;20043;-47
2022/03/14 03:31:09;;;;;;;2.80;1.70;;;;;;;8.87;64.96;99480.50;4917357;29;20082;-49
2022/03/14 03:33:35;;;;;;;9.00;7.13;;;;;;;8.73;65.48;99475.97;4917321;29;20032;-48
2022/03/14 03:36:02;;;;;;;6.28;2.05;;;;;;;8.71;65.66;99473.56;4918545;29;20111;-49
2022/03/14 03:38:28;;;;;;;4.47;1.63;;;;;;;8.72;65.78;99466.50;4918483;29;20076;-48
2022/03/14 03:40:54;;;;;;;13.80;10.15;;;;;;;8.71;65.92;99472.72;4918777;29;20059;-49
2022/03/14 03:43:20;;;;;;;2.25;1.70;;;;;;;8.75;65.52;99472.22;4918411;29;20032;-49
2022/03/14 03:45:46;;;;;;;7.53;2.42;;;;;;;8.63;66.29;99473.56;4917108;29;20634;-48
2022/03/14 03:48:12;;;;;;;5.13;1.63;;;;;;;8.65;65.90;99476.00;4918352;29;20032;-49
2022/03/14 03:50:38;;;;;;;3.92;2.25;;;;;;;8.67;66.03;99467.03;4918253;29;20025;-49
2022/03/14 03:53:04;;;;;;;27.95;24.48;;;;;;;8.70;66.40;99469.28;4918320;29;20028;-48
2022/03/14 03:55:29;;;;;;;5.65;4.63;;;;;;;8.82;65.97;99469.75;4918184;29;20051;-50
2022/03/14 03:57:55;;;;;;;81.50;72.88;;;;;;;8.90;65.45;99464.47;4918081;29;20095;-48
2022/03/14 04:00:22;;;;;;;10.05;7.97;;;;;;;8.89;64.89;99480.34;4918161;29;20399;-48
2022/03/14 04:02:50;;;;;;;3.55;3.03;;;;;;;8.70;65.01;99471.09;4916859;29;20032;-48
2022/03/14 04:05:16;;;;;;;78.38;70.38;;;;;;;8.60;65.68;99474.72;4918019;29;20028;-48
2022/03/14 04:07:43;;;;;;;11.52;10.32;;;;;;;8.63;65.46;99477.97;4918012;29;20028;-48
2022/03/14 04:10:15;;;;;;;16.02;10.05;;;;;;;8.66;64.97;99477.66;4916699;29;20024;-49
2022/03/14 04:12:43;;;;;;;6.22;2.88;;;;;;;8.82;65.17;99480.22;4917994;29;20050;-48
2022/03/14 04:15:09;;;;;;;6.53;4.63;;;;;;;8.85;64.76;99481.66;4917880;29;20028;-48
2022/03/14 04:17:37;;;;;;;9.45;8.00;;;;;;;8.80;64.43;99483.00;4918007;29;20466;-49
2022/03/14 04:20:08;;;;;;;9.57;6.00;;;;;;;8.67;64.65;99480.13;4917759;29;20398;-49
2022/03/14 04:22:38;;;;;;;92.93;84.28;;;;;;;8.51;64.78;99491.44;4917451;29;20231;-49
2022/03/14 04:25:07;;;;;;;18.60;13.27;;;;;;;8.34;65.22;99482.75;4916399;29;20043;-48
2022/03/14 04:27:33;;;;;;;6.38;5.25;;;;;;;8.38;66.00;99476.22;4917617;29;20519;-48
2022/03/14 04:29:59;;;;;;;4.50;2.05;;;;;;;8.54;66.23;99491.09;4917592;29;20039;-49
2022/03/14 04:32:25;;;;;;;3.33;2.40;;;;;;;8.67;65.03;99485.34;4917768;29;20024;-48
2022/03/14 04:34:52;;;;;;;6.22;5.35;;;;;;;8.68;64.50;99488.78;4917550;29;20402;-49
2022/03/14 04:37:19;;;;;;;10.07;4.90;;;;;;;8.62;64.58;99500.72;4917377;29;20076;-47
2022/03/14 04:39:46;;;;;;;4.15;2.55;;;;;;;8.62;64.21;99503.34;4916142;29;20414;-48
2022/03/14 04:42:11;;;;;;;49.88;40.28;;;;;;;8.53;64.41;99507.78;4917352;29;20025;-48
2022/03/14 04:44:37;;;;;;;17.30;8.18;;;;;;;8.48;64.47;99507.44;4917341;29;20035;-49
2022/03/14 04:47:04;;;;;;;8.15;5.32;;;;;;;8.48;65.03;99509.25;4915982;29;20028;-49
2022/03/14 04:49:30;;;;;;;201.27;155.60;;;;;;;8.47;64.39;99512.84;4917206;29;20028;-48
2022/03/14 04:51:55;;;;;;;34.03;27.92;;;;;;;8.28;65.15;99512.19;4915932;29;20399;-48
2022/03/14 04:54:22;;;;;;;8.57;7.68;;;;;;;7.99;65.23;99518.72;4915836;29;20039;-49
2022/03/14 04:56:48;;;;;;;4.00;2.45;;;;;;;7.71;66.11;99518.22;4915816;29;20063;-48
2022/03/14 04:59:14;;;;;;;1.98;1.77;;;;;;;7.54;66.49;99519.97;4916996;29;20032;-49
2022/03/14 05:01:40;;;;;;;5.97;2.40;;;;;;;7.52;66.74;99529.75;4917042;29;20091;-49
2022/03/14 05:04:06;;;;;;;7.05;3.00;;;;;;;7.47;67.71;99533.84;4917007;29;20099;-48
2022/03/14 05:06:35;;;;;;;3.08;1.83;;;;;;;7.51;67.37;99535.97;4916928;29;20025;-48
2022/03/14 05:09:01;;;;;;;10.48;8.93;;;;;;;7.60;66.71;99537.63;4916935;29;20048;-49
2022/03/14 05:11:27;;;;;;;3.42;2.70;;;;;;;7.68;66.35;99534.19;4916851;29;20047;-48
2022/03/14 05:13:53;;;;;;;24.52;18.25;;;;;;;7.79;66.70;99528.69;4916809;29;20036;-48
2022/03/14 05:16:20;;;;;;;6.57;4.78;;;;;;;7.95;65.98;99522.66;4915202;29;20056;-49
2022/03/14 05:18:46;;;;;;;52.20;47.38;;;;;;;8.02;66.29;99527.22;4915366;29;20028;-48
2022/03/14 05:21:13;;;;;;;10.02;7.15;;;;;;;8.03;65.85;99527.06;4916596;29;20402;-48
2022/03/14 05:23:40;;;;;;;5.82;5.22;;;;;;;7.96;66.21;99534.72;4916636;29;20111;-48
2022/03/14 05:26:06;;;;;;;7.93;5.43;;;;;;;7.97;66.17;99531.16;4916568;29;20032;-49
2022/03/14 05:28:32;;;;;;;6.63;3.83;;;;;;;7.93;65.85;99536.88;4916551;29;20028;-47
2022/03/14 05:30:58;;;;;;;5.28;3.35;;;;;;;7.94;65.87;99528.84;4915156;29;20035;-47
2022/03/14 05:33:24;;;;;;;5.45;3.00;;;;;;;7.98;66.13;99535.38;4916478;29;20020;-49
2022/03/14 05:35:51;;;;;;;6.35;2.35;;;;;;;7.98;65.39;99540.59;4915716;29;20032;-48
2022/03/14 05:38:17;;;;;;;3.55;2.38;;;;;;;7.89;65.64;99540.78;4916269;29;20395;-49
2022/03/14 05:40:43;;;;;;;8.85;3.95;;;;;;;7.72;65.66;99547.78;4916343;29;20075;-49
2022/03/14 05:43:11;;;;;;;14.32;13.07;;;;;;;7.52;66.11;99547.22;4915036;29;20025;-49
2022/03/14 05:45:37;;;;;;;6.32;4.47;;;;;;;7.19;66.09;99550.56;4916239;29;20032;-49
2022/03/14 05:48:04;;;;;;;5.35;2.40;;;;;;;7.02;66.77;99556.66;4916231;29;20435;-49
2022/03/14 05:50:30;;;;;;;5.18;2.95;;;;;;;6.94;67.62;99561.84;4916228;29;20413;-49
2022/03/14 05:52:56;;;;;;;3.80;2.47;;;;;;;6.76;68.14;99569.72;4916178;29;20099;-48
2022/03/14 05:55:22;;;;;;;4.40;2.90;;;;;;;6.56;68.08;99567.34;4916091;29;20035;-48
2022/03/14 05:57:48;;;;;;;4.72;2.83;;;;;;;6.47;68.72;99570.03;4914729;29;20414;-49
2022/03/14 06:00:22;;;;;;;3.97;2.67;;;;;;;6.38;69.49;99563.94;4916012;29;20028;-48
2022/03/14 06:02:49;;;;;;;28.13;25.23;;;;;;;6.26;69.79;99575.56;4916091;29;20024;-48
2022/03/14 06:05:18;;;;;;;6.75;5.55;;;;;;;6.36;70.02;99566.69;4915996;29;20511;-50
2022/03/14 06:07:44;;;;;;;6.28;4.55;;;;;;;6.67;70.11;99571.47;4915937;29;20445;-49
2022/03/14 06:10:11;;;;;;;8.45;2.53;;;;;;;7.03;69.11;99575.78;4915815;29;20024;-48
2022/03/14 06:12:37;;;;;;;129.50;115.38;;;;;;;7.38;68.08;99583.44;4915832;29;20051;-49
2022/03/14 06:15:04;;;;;;;13.48;9.73;;;;;;;7.69;67.64;99587.28;4914547;29;20573;-48
2022/03/14 06:17:30;;;;;;;8.23;3.55;;;;;;;7.87;65.78;99593.22;4915565;29;20088;-48
2022/03/14 06:19:56;;;;;;;4.20;3.20;;;;;;;7.72;65.63;99590.38;4915754;29;20048;-48
2022/03/14 06:22:23;;;;;;;6.30;3.38;;;;;;;7.74;66.71;99596.25;4914382;29;20538;-48
2022/03/14 06:24:51;;;;;;;4.45;3.40;;;;;;;7.95;66.29;99593.22;4915766;29;20087;-49
2022/03/14 06:27:18;;;;;;;4.18;2.58;;;;;;;8.11;65.25;99594.22;4915694;29;20099;-49
2022/03/14 06:29:45;;;;;;;4.78;3.35;;;;;;;8.09;64.88;99591.78;4915702;29;20406;-48
2022/03/14 06:32:11;;;;;;;4.75;2.65;;;;;;;8.44;65.26;99602.13;4915624;29;20518;-48
2022/03/14 06:34:38;;;;;;;3.72;2.70;;;;;;;9.12;63.45;99609.56;4915648;29;20035;-48
2022/03/14 06:37:07;;;;;;;10.20;6.78;;;;;;;9.72;61.82;99602.94;4915608;29;20101;-48
2022/03/14 06:39:37;;;;;;;8.18;5.70;;;;;;;9.91;59.96;99608.72;4914209;29;20044;-49
2022/03/14 06:42:09;;;;;;;7.15;3.75;;;;;;;10.05;59.28;99601.91;4915523;29;20566;-48
2022/03/14 06:44:40;;;;;;;6.10;3.17;;;;;;;10.16;58.36;99599.72;4915620;29;20035;-49
2022/03/14 06:47:11;;;;;;;4.53;2.90;;;;;;;10.20;58.36;99595.75;4917885;29;20028;-47
2022/03/14 06:49:39;;;;;;;4.97;3.10;;;;;;;10.47;58.06;99590.16;4918217;29;20566;-47
2022/03/14 06:52:05;;;;;;;9.45;4.07;;;;;;;10.41;57.57;99602.19;4919363;29;20028;-48
2022/03/14 06:54:31;;;;;;;8.45;3.10;;;;;;;10.01;58.33;99604.06;4919389;29;20152;-49
2022/03/14 06:56:57;;;;;;;6.50;5.03;;;;;;;9.71;59.47;99613.59;4918043;29;20499;-49
2022/03/14 06:59:23;;;;;;;5.28;3.05;;;;;;;9.48;59.88;99611.72;4917959;29;20035;-49
2022/03/14 07:01:49;;;;;;;5.80;4.45;;;;;;;9.27;60.67;99625.38;4917919;29;20035;-49
2022/03/14 07:04:15;;;;;;;4.38;2.78;;;;;;;9.16;61.38;99621.31;4919143;29;20024;-48
2022/03/14 07:06:41;;;;;;;10.82;2.75;;;;;;;9.16;61.71;99620.50;4919105;29;20024;-48
2022/03/14 07:09:09;;;;;;;16.15;6.80;;;;;;;9.27;61.37;99625.38;4919096;29;20028;-49
2022/03/14 07:11:35;;;;;;;11.50;4.07;;;;;;;9.34;60.66;99628.16;4919051;29;20047;-48
2022/03/14 07:14:01;;;;;;;8.95;5.10;;;;;;;9.42;61.16;99628.13;4918952;29;20156;-49
2022/03/14 07:16:27;;;;;;;5.22;3.05;;;;;;;9.62;60.33;99632.94;4918724;29;20111;-48
2022/03/14 07:18:53;;;;;;;5.82;2.90;;;;;;;9.99;60.43;99621.78;4918825;29;20031;-47
2022/03/14 07:21:18;;;;;;;7.50;3.53;;;;;;;10.48;59.43;99621.47;4918822;29;20494;-49
2022/03/14 07:23:45;;;;;;;5.10;3.03;;;;;;;11.10;58.15;99614.34;4918806;29;20028;-48
2022/03/14 07:26:11;;;;;;;6.93;2.58;;;;;;;11.53;56.60;99627.63;4918742;29;20076;-48
2022/03/14 07:28:38;;;;;;;6.93;3.63;;;;;;;11.85;55.96;99625.59;4917694;29;20044;-49
2022/03/14 07:31:05;;;;;;;5.50;2.92;;;;;;;11.65;55.39;99626.19;4918645;29;20028;-49
2022/03/14 07:33:31;;;;;;;10.82;4.00;;;;;;;11.54;55.29;99629.28;4918655;29;20032;-49
2022/03/14 07:35:57;;;;;;;6.78;3.45;;;;;;;11.62;55.56;99626.53;4918581;29;20031;-49
2022/03/14 07:38:23;;;;;;;10.60;3.20;;;;;;;11.82;55.48;99633.88;4918470;29;20398;-49
2022/03/14 07:40:48;;;;;;;4.20;2.40;;;;;;;12.65;54.23;99635.09;4918512;29;20031;-49
2022/03/14 07:43:14;;;;;;;8.43;3.20;;;;;;;13.39;51.56;99634.59;4918485;29;20036;-49
2022/03/14 07:45:40;;;;;;;10.15;3.03;;;;;;;14.05;50.26;99641.16;4918415;29;20092;-50
2022/03/14 07:48:06;;;;;;;5.32;2.97;;;;;;;14.25;50.09;99645.69;4918370;29;20773;-48
2022/03/14 07:50:32;;;;;;;5.88;2.47;;;;;;;14.56;49.34;99637.19;4918404;29;20028;-49
2022/03/14 07:52:58;;;;;;;26.58;4.28;;;;;;;14.82;49.83;99641.66;4918277;29;20031;-49
2022/03/14 07:55:25;;;;;;;6.25;3.30;;;;;;;15.07;48.83;99651.59;4916940;29;20024;-49
2022/03/14 07:57:51;;;;;;;3.78;2.40;;;;;;;15.22;48.08;99640.81;4916104;29;20028;-50
2022/03/14 08:00:19;;;;;;;2.95;2.30;;;;;;;15.55;47.40;99646.84;4916849;29;20634;-49
2022/03/14 08:02:47;;;;;;;5.13;2.90;;;;;;;15.97;45.95;99644.63;4916844;29;20063;-50
2022/03/14 08:05:15;;;;;;;5.10;2.65;;;;;;;16.25;45.50;99646.09;4918035;29;20032;-49
2022/03/14 08:07:47;;;;;;;3.95;2.72;;;;;;;16.76;44.04;99646.94;4918015;29;20040;-49
2022/03/14 08:10:16;;;;;;;7.00;2.50;;;;;;;17.30;43.51;99650.75;4918016;29;20024;-50
2022/03/14 08:12:48;;;;;;;3.60;2.55;;;;;;;17.96;42.24;99657.13;4917929;29;20021;-50
2022/03/14 08:15:25;;;;;;;4.75;3.05;;;;;;;18.24;41.87;99655.75;4917586;29;20032;-50
2022/03/14 08:17:55;;;;;;;7.78;3.50;;;;;;;18.38;41.88;99656.38;4917831;29;20063;-50
2022/03/14 08:20:23;;;;;;;4.38;2.30;;;;;;;18.61;39.89;99660.91;4917817;29;20028;-50
2022/03/14 08:22:49;;;;;;;7.03;2.72;;;;;;;17.94;40.96;99667.19;4917755;29;20024;-49
2022/03/14 08:25:15;;;;;;;5.38;2.40;;;;;;;17.47;41.26;99676.72;4917728;29;20103;-49
2022/03/14 08:27:42;;;;;;;4.65;2.53;;;;;;;16.86;42.90;99673.81;4917736;29;20176;-50
2022/03/14 08:30:08;;;;;;;4.35;3.00;;;;;;;16.68;44.20;99676.38;4916494;29;20035;-49
2022/03/14 08:32:35;;;;;;;11.80;3.13;;;;;;;16.81;43.93;99676.31;4916295;29;20032;-50
2022/03/14 08:35:07;;;;;;;3.55;2.70;;;;;;;17.09;43.47;99675.84;4916251;29;20028;-49
2022/03/14 08:37:35;;;;;;;14.40;3.20;;;;;;;17.33;42.62;99676.84;4917441;29;20039;-50
2022/03/14 08:40:01;;;;;;;5.90;2.97;;;;;;;17.35;43.00;99682.75;4917464;29;20024;-49
2022/03/14 08:42:27;;;;;;;6.18;3.20;;;;;;;17.75;41.99;99678.84;4916236;29;20398;-50
2022/03/14 08:44:53;;;;;;;5.30;2.83;;;;;;;18.16;40.96;99674.66;4916061;29;20024;-50
2022/03/14 08:47:18;;;;;;;8.32;2.85;;;;;;;18.32;40.50;99666.03;4916013;29;20028;-50
2022/03/14 08:49:44;;;;;;;3.60;2.70;;;;;;;18.65;40.25;99672.72;4917361;29;20059;-50
2022/03/14 08:52:10;;;;;;;9.68;3.50;;;;;;;19.14;39.88;99675.22;4917184;29;20100;-50
2022/03/14 08:54:36;;;;;;;7.00;2.58;;;;;;;19.04;39.61;99681.09;4915909;29;20048;-51
2022/03/14 08:57:02;;;;;;;4.30;2.60;;;;;;;18.55;39.73;99680.44;4915819;29;20073;-49
2022/03/14 08:59:27;;;;;;;10.55;3.30;;;;;;;18.04;40.84;99684.44;4915757;29;20044;-50
2022/03/14 09:01:53;;;;;;;10.55;2.63;;;;;;;17.71;41.71;99677.66;4917024;29;20106;-49
2022/03/14 09:04:19;;;;;;;6.05;2.55;;;;;;;17.39;42.39;99677.00;4915750;29;20115;-50
2022/03/14 09:06:45;;;;;;;12.00;3.38;;;;;;;17.37;42.45;99685.19;4915644;29;20021;-50
2022/03/14 09:09:12;;;;;;;12.20;6.50;;;;;;;17.71;42.26;99681.13;4915115;29;20099;-50
2022/03/14 09:11:39;;;;;;;16.10;6.28;;;;;;;17.67;42.50;99673.84;4915174;29;20036;-50
2022/03/14 09:14:05;;;;;;;9.77;6.72;;;;;;;18.76;41.03;99665.78;4916852;29;20054;-50
2022/03/14 09:16:33;;;;;;;9.63;4.40;;;;;;;19.24;39.82;99666.66;4916477;29;20056;-51
2022/03/14 09:18:59;;;;;;;5.05;2.53;;;;;;;19.28;39.65;99670.47;4916673;29;20107;-50
2022/03/14 09:21:26;;;;;;;13.82;2.80;;;;;;;19.47;39.49;99668.47;4916685;29;20115;-50
2022/03/14 09:23:52;;;;;;;12.32;5.05;;;;;;;19.34;39.79;99667.66;4916839;29;20025;-50
2022/03/14 09:26:18;;;;;;;6.53;2.90;;;;;;;20.35;38.64;99658.44;4916499;29;20490;-50
2022/03/14 09:28:44;;;;;;;4.18;2.35;;;;;;;21.26;36.79;99660.91;4915337;29;20032;-50
2022/03/14 09:31:13;;;;;;;3.25;2.30;;;;;;;22.05;35.76;99654.38;4915287;29;20032;-50
2022/03/14 09:33:39;;;;;;;9.68;2.50;;;;;;;22.69;34.24;99645.63;4916679;29;20024;-50
2022/03/14 09:36:06;;;;;;;7.50;2.22;;;;;;;23.40;33.14;99640.97;4916404;29;20028;-50
2022/03/14 09:38:32;;;;;;;6.60;2.50;;;;;;;23.84;32.25;99651.34;4915035;29;20032;-51
2022/03/14 09:41:04;;;;;;;13.63;3.20;;;;;;;24.21;31.75;99643.09;4915121;29;20047;-51
2022/03/14 09:43:32;;;;;;;9.85;2.67;;;;;;;24.67;31.19;99636.94;4915130;29;20035;-51
2022/03/14 09:46:03;;;;;;;9.20;2.38;;;;;;;25.18;30.54;99644.13;4930808;29;20047;-51
2022/03/14 09:48:36;;;;;;;9.65;3.42;;;;;;;25.33;30.02;99645.97;4915015;29;20062;-51
2022/03/14 09:51:04;;;;;;;9.23;2.90;;;;;;;25.67;29.06;99640.72;4916225;29;20068;-51
2022/03/14 09:53:31;;;;;;;7.82;3.00;;;;;;;25.83;28.75;99644.94;4916171;29;20035;-51
2022/03/14 09:55:57;;;;;;;6.00;2.72;;;;;;;26.01;28.07;99645.41;4916349;29;20079;-51
2022/03/14 09:58:23;;;;;;;10.25;3.58;;;;;;;25.08;29.22;99644.94;4914780;29;20502;-50
2022/03/14 10:00:50;;;;;;;8.43;3.63;;;;;;;24.42;29.39;99649.28;4915994;29;20395;-50
2022/03/14 10:03:17;;;;;;;8.35;3.00;;;;;;;23.74;30.08;99644.03;4915966;29;20031;-50
2022/03/14 10:05:44;;;;;;;4.18;3.42;;;;;;;23.31;31.22;99649.50;4915849;29;20133;-50
2022/03/14 10:08:11;;;;;;;3.70;2.90;;;;;;;23.06;31.11;99649.38;4914670;29;20499;-50
2022/03/14 10:10:38;;;;;;;4.38;2.60;;;;;;;22.81;30.79;99653.47;4915921;29;20107;-50
2022/03/14 10:13:06;;;;;;;5.53;3.75;;;;;;;22.72;31.22;99652.34;4916106;29;20024;-51
2022/03/14 10:15:36;;;;;;;5.38;3.55;;;;;;;23.24;31.04;99651.63;4915613;29;20036;-51
2022/03/14 10:18:10;;;;;;;7.38;3.00;;;;;;;24.01;29.68;99657.28;4915753;29;20115;-50
2022/03/14 10:20:36;;;;;;;11.02;4.00;;;;;;;24.15;29.57;99654.91;4914229;29;20123;-51
2022/03/14 10:23:02;;;;;;;6.45;2.40;;;;;;;24.54;28.36;99657.09;4915694;29;20039;-50
2022/03/14 10:25:29;;;;;;;3.20;2.45;;;;;;;24.56;29.11;99656.84;4914459;29;20024;-50
2022/03/14 10:27:57;;;;;;;3.17;2.33;;;;;;;24.86;28.40;99661.38;4915919;29;20443;-51
2022/03/14 10:30:29;;;;;;;9.57;3.45;;;;;;;25.09;28.04;99657.28;4915642;29;20024;-51
2022/03/14 10:33:14;;;;;;;9.30;2.70;;;;;;;25.25;28.12;99666.97;4914416;29;20506;-49
2022/03/14 10:35:44;;;;;;;6.35;2.60;;;;;;;25.46;27.46;99659.63;4915698;29;20105;-51
2022/03/14 10:38:13;;;;;;;6.32;2.45;;;;;;;25.99;26.89;99667.19;4914331;29;20036;-51
2022/03/14 10:40:42;;;;;;;3.40;2.25;;;;;;;26.31;26.14;99664.00;4915534;29;20498;-51
2022/03/14 10:43:32;;;;;;;6.20;3.17;;;;;;;26.45;25.97;99669.56;4914259;29;20032;-51
2022/03/14 10:46:00;;;;;;;8.95;4.82;;;;;;;26.37;25.72;99664.78;4915568;29;20115;-50
2022/03/14 10:48:45;;;;;;;8.30;2.72;;;;;;;26.31;26.43;99655.16;4915524;29;20032;-51
2022/03/14 10:51:14;;;;;;;15.30;13.80;;;;;;;25.78;26.05;99658.41;4915517;29;20506;-51
2022/03/14 10:53:45;;;;;;;11.10;7.30;;;;;;;25.39;26.79;99652.94;4915403;29;20028;-50
2022/03/14 10:56:15;;;;;;;4.20;2.47;;;;;;;25.14;27.00;99653.81;4914217;29;20032;-51
2022/03/14 10:58:43;;;;;;;4.15;1.98;;;;;;;24.87;27.62;99649.53;4914118;29;20410;-50
2022/03/14 11:01:11;;;;;;;6.13;2.45;;;;;;;24.84;27.81;99650.91;4914135;29;20024;-49
2022/03/14 11:03:41;;;;;;;11.80;3.47;;;;;;;25.40;27.79;99647.28;4915382;29;20035;-50
2022/03/14 11:06:22;;;;;;;5.13;2.10;;;;;;;26.13;26.96;99658.50;4914112;29;20039;-50
2022/03/14 11:08:48;;;;;;;2.92;2.05;;;;;;;26.95;25.30;99653.28;4915360;29;20043;-51
2022/03/14 11:11:22;;;;;;;5.10;2.45;;;;;;;27.06;25.07;99660.16;4915329;29;20519;-50
2022/03/14 11:13:51;;;;;;;2.47;2.00;;;;;;;27.41;24.81;99660.09;4915333;29;20032;-51
2022/03/14 11:16:34;;;;;;;5.13;2.10;;;;;;;27.33;24.64;99639.94;4913902;29;20048;-50
2022/03/14 11:19:01;;;;;;;2.85;2.17;;;;;;;27.23;24.71;99643.56;4915490;29;20036;-50
2022/03/14 11:21:29;;;;;;;3.28;2.10;;;;;;;27.22;25.07;99646.50;4913947;29;20406;-51
2022/03/14 11:23:55;;;;;;;5.60;2.50;;;;;;;27.26;24.79;99650.25;4914185;29;20403;-50
2022/03/14 11:26:24;;;;;;;3.50;2.20;;;;;;;26.83;25.02;99648.25;4913917;29;20036;-50
2022/03/14 11:28:51;;;;;;;5.15;2.65;;;;;;;26.64;25.48;99652.75;4898348;29;20028;-50
2022/03/14 11:31:22;;;;;;;4.95;2.85;;;;;;;26.51;25.81;99652.28;4915097;29;20422;-51
2022/03/14 11:33:49;;;;;;;6.25;3.50;;;;;;;26.33;25.95;99658.34;4915551;29;20164;-48